Hovedside
METAR-TAF:

METAR-TAF

Lufthavner :

Portland internasjonale lufthavn

Portland, Oregon, USA

breddegrad: 45-35-27N, lengdegrad: 122-36-01W, høyde over havet: 8 m

Gjeldene værobservasjon

Denne rapporten ble laget for 1 time og 9 minutter siden, klokken 07:53 UTC
Vind 13 kt fra Øst
Temperatur 9°C
Luftfuktighet 49%
Trykk 1022 hPa
Sikt: 16.1 km
Skyfri himmel

METAR: KPDX 180753Z 09013KT 10SM CLR 09/M01 A3017 RMK AO2 SLP216 T00941011 401440028

Tid: 01:02 (09:02 UTC)

Varsel

Denne rapporten ble laget for 59 minutter siden, klokken 08:03 UTC
Varsel gyldig fra 18. klokken 08 UTC til 19. klokken 06 UTC
Vind 12 kt fra Øst med vindkast opp mot 20 kt
Sikt: 10 km
Skyfri himmel
Fra 18. klokken 1200 UTC
Vind 11 kt fra Øst
Sikt: 10 km
Skyfri himmel

TAF: KPDX 180803Z 1808/1906 09012G20KT P6SM SKC FM181200 09011KT P6SM SKC

Værobservasjoner og værvarsel for over 4000 flyplasser (METAR- og TAF-rapporter).

Tilgjengelige stasjoner er representert av de røde og gule prikkene på kartet.

Hold musepekeren over prikken for å se navnet på stasjonen.

Klikk så for å se værobservasjoner og -varsler.

For å forandre kartet kan du klikke på den grønne knappen med svart kryss for å zoome inn, på den grønne knappen med strek for å zoome ut, eller på de grønne pilene for å se tilstøtende kart.


METAR-TAF: